• Join FlightAware (Why Join?)
  • Login
  • US Flag 
05:05AM EST


 

Airport Tracker/Info


-or-


 

Live Flight TrackerFlight Track Log ✈ UAL6044 ✈ 17-Apr-2013 ✈ KIND - KIAD

Flight Track Log - Related Links

Times and Time Zones

All times are in EDT time to prevent confusion due to time zone crossing. See the UAL6044 flight status page for this flight to view local times or setup timezone preferences in your user account.

Time Position Orientation Groundspeed Altitude Reporting Facility
EDT Latitude Longitude Course Direction KTS MPH feet Rate Location/Type
02:31PM 39.7167 -86.2667 74° East 167 192 1,400  Level Indianapolis TRACON
02:32PM 39.7333 -86.2500 38° Northeast 171 197 2,100 1,140 Climbing Indianapolis TRACON
02:33PM 39.8000 -86.1833 38° Northeast 265 305 3,300 1,560 Climbing Indianapolis TRACON
02:34PM 39.8167 -86.1000 75° East 290 334 5,500 2,220 Climbing Indianapolis TRACON
02:35PM 39.7955 -85.7047 79° East  Level FlightAware Approximate
02:35PM 39.8167 -86.0000 90° East 287 330 7,600  Level Indianapolis TRACON
02:36PM 39.8182 -85.5597 74° East  Level FlightAware Approximate
02:36PM 39.8275 -85.9167 80° East 277 319 9,600  Level Indianapolis Center
02:37PM 39.8498 -85.4175 74° East  Level FlightAware Approximate
02:37PM 39.8364 -85.8178 83° East 290 334 11,000  Level Indianapolis Center
02:38PM 39.8464 -85.6747 85° East 334 384 12,000 900 Climbing Indianapolis Center
02:39PM 39.8592 -85.5422 83° East 360 414 12,900 840 Climbing Indianapolis Center
02:40PM 39.8706 -85.4008 84° East 381 438 13,800 960 Climbing Indianapolis Center
02:41PM 39.8808 -85.2547 85° East 397 457 14,900 1,260 Climbing Indianapolis Center
02:42PM 39.8872 -85.1100 87° East 399 459 16,500 1,560 Climbing Indianapolis Center
02:43PM 39.8939 -84.9692 86° East 389 448 18,100 1,320 Climbing Indianapolis Center
02:44PM 39.9006 -84.8275 86° East 388 447 19,300 1,080 Climbing Indianapolis Center
02:45PM 39.9075 -84.6806 86° East 401 461 20,400 1,080 Climbing Indianapolis Center
02:46PM 39.9147 -84.5292 86° East 413 475 21,600 1,200 Climbing Indianapolis Center
02:47PM 39.9217 -84.3511 87° East 418 481 22,900 1,200 Climbing Indianapolis Center
02:48PM 39.9289 -84.1953 86° East 425 489 24,100 960 Climbing Indianapolis Center
02:49PM 39.9344 -84.0394 87° East 426 490 25,000 420 Climbing Indianapolis Center
02:50PM 39.9414 -83.8761 87° East 445 512 25,000  Level Indianapolis Center
02:51PM 39.9475 -83.7061 87° East 463 533 25,000  Level Indianapolis Center
02:52PM 39.9536 -83.5356 87° East 460 529 25,000  Level Indianapolis Center
02:53PM 39.9603 -83.3625 87° East 462 532 25,000  Level Indianapolis Center
02:54PM 39.9650 -83.1906 88° East 465 535 25,000  Level Indianapolis Center
02:55PM 39.9703 -83.0217 88° East 463 533 25,000  Level Indianapolis Center
02:56PM 39.9756 -82.8519 88° East 464 534 25,000  Level Indianapolis Center
02:57PM 39.9800 -82.6764 88° East 477 549 25,000  Level Indianapolis Center
02:58PM 39.9847 -82.4983 88° East 485 558 25,000 -60 Level Indianapolis Center
02:59PM 39.9900 -82.2886 88° East 492 566 24,900  Descending Indianapolis Center
03:00PM 39.9947 -82.1261 88° East 445 512 25,000  Climbing Indianapolis Center
03:01PM 39.9983 -81.9658 88° East 438 504 25,000  Level Indianapolis Center
03:02PM 40.0014 -81.8053 89° East 438 504 25,000  Level Indianapolis Center
03:03PM 40.0036 -81.6356 89° East 439 505 25,000  Level Indianapolis Center
03:04PM 40.0067 -81.4753 89° East 439 505 25,000  Level Indianapolis Center
03:05PM 40.0011 -81.3169 93° East 437 503 25,000  Level Indianapolis Center
03:07PM 39.9614 -81.1650 109° East 439 505 25,000  Level Indianapolis Center
03:08PM 39.9178 -81.0050 110° East 445 512 25,000  Level Indianapolis Center
03:08PM 39.8875 -80.8861 108° East 438 504 25,000  Level Cleveland Center
03:09PM 39.8461 -80.7372 110° East 443 510 25,000  Level Cleveland Center
03:10PM 39.8044 -80.5858 110° East 443 510 25,000  Level Cleveland Center
03:11PM 39.7606 -80.4372 111° Southeast 443 510 25,000  Level Cleveland Center
03:12PM 39.7186 -80.2917 110° East 443 510 25,000  Level Cleveland Center
03:13PM 39.6722 -80.1272 110° East 443 510 25,000  Level Cleveland Center
03:14PM 39.6319 -79.9819 110° East 437 503 25,000  Level Cleveland Center
03:15PM 39.5894 -79.8369 111° Southeast 431 496 25,000  Level Cleveland Center
03:16PM 39.5467 -79.6919 111° Southeast 431 496 25,000  Level Cleveland Center
03:17PM 39.5219 -79.6028 110° East 429 494 25,000  Level Washington Center
03:18PM 39.4872 -79.4558 107° East 429 494 25,000  Level Washington Center
03:19PM 39.4606 -79.3064 103° East 429 494 25,000 -660 Level Washington Center
03:20PM 39.4339 -79.1572 103° East 424 488 23,700 -1,800 Descending Washington Center
03:21PM 39.4067 -79.0136 104° East 418 481 21,500 -2,220 Descending Washington Center
03:22PM 39.3789 -78.8886 106° East 406 467 19,300 -2,400 Descending Washington Center
03:23PM 39.3536 -78.7400 102° East 389 448 16,800 -2,400 Descending Washington Center
03:24PM 39.3336 -78.6292 103° East 368 423 14,600 -2,460 Descending Washington Center
03:25PM 39.3100 -78.4939 103° East 355 409 11,900 -1,800 Descending Washington Center
03:26PM 39.2917 -78.3886 103° East 349 402 11,000 -600 Descending Washington Center
03:27PM 39.2397 -78.2794 122° Southeast 312 359 10,800 -540 Descending Washington Center
03:28PM 39.1897 -78.1839 124° Southeast 342 394 10,000 -420 Descending Washington Center
03:29PM 39.1297 -78.0719 125° Southeast 352 405 10,000  Level Washington Center
03:30PM 39.0775 -77.9714 124° Southeast 368 423 10,000 -180 Level Washington Center
03:31PM 39.0211 -77.8653 124° Southeast 344 396 9,700 -960 Descending Washington Center
03:32PM 38.9872 -77.7842 118° Southeast 305 351 8,100 -1,680 Descending Washington Center
03:33PM 38.9558 -77.6817 111° Southeast 276 318 6,400 -900 Descending Washington Center
03:34PM 38.8667 -77.5833 139° Southeast 278 320 6,000 -240 Descending Potomac TRACON
03:35PM 38.8000 -77.5833 180° South 236 272 5,900 -720 Descending Potomac TRACON
03:36PM 38.7333 -77.5833 180° South 232 267 4,600 -960 Descending Potomac TRACON
03:37PM 38.7333 -77.5167 90° East 234 269 4,000 -600 Descending Potomac TRACON
03:38PM 38.7833 -77.4833 27° Northeast 223 257 3,400 -600 Descending Potomac TRACON